Ellijay, Georgia
Current Conditions -  °F | °C
As of 12:15 PM on Friday 28 Nov 2014 (Local Time) from KDNN Reporting Station
Clear Clear  
Wind Chill: 33°   Ceiling: Unl
Heat Index: 37°   Visibility: 10mi
Dew Point: 23°   Wind: 6mph
Humidity: 56%   Direction: 320°NW
Pressure: 30.4"   Gusts: NA
Location:  34.69°N, 84.48°W
Report Text: KDNN 281715Z AUTO 32005KT 10SM CLR 03/M05 A3040 RMK AO2
Loading
Personal Weather Stations






























Interactive Weather Map New forecast layout! Learn more

10-Day Weather Forecast

Advertisements
Track Severe Weather on mobile